Time;durP1;ratioP1;P1;durP2;ratioP2;P2;SDS_P1;SDS_P2;PMS_P1;PMS_P2;Temp;Humidity;BMP_temperature;BMP_pressure;BME280_temperature;BME280_humidity;BME280_pressure;Samples;Min_cycle;Max_cycle;Signal;HPM_P1;HPM_P2
2023/06/26 00:00:51;;;;;;;14.35;12.93;;;27.50;60.90;;;;;;5058187;28;20127;-93
2023/06/26 00:03:16;;;;;;;14.20;12.90;;;27.50;61.00;;;;;;5057438;28;20407;-94
2023/06/26 00:05:42;;;;;;;14.02;12.55;;;27.40;60.90;;;;;;5056461;28;20056;-94
2023/06/26 00:08:08;;;;;;;14.35;13.05;;;27.40;61.20;;;;;;5058550;28;20040;-93
2023/06/26 00:10:34;;;;;;;13.57;12.27;;;27.40;60.80;;;;;;5056216;28;20040;-93
2023/06/26 00:13:02;;;;;;;14.15;12.48;;;27.40;61.00;;;;;;5057204;28;20043;-93
2023/06/26 00:15:42;;;;;;;15.07;13.73;;;27.40;61.00;;;;;;5057585;28;20044;-93
2023/06/26 00:18:07;;;;;;;14.57;13.35;;;27.30;61.10;;;;;;5058052;28;20045;-94
2023/06/26 00:20:33;;;;;;;14.20;12.90;;;27.40;60.90;;;;;;5060993;28;20498;-94
2023/06/26 00:23:07;;;;;;;14.25;12.85;;;27.40;61.00;;;;;;5060854;28;20044;-94
2023/06/26 00:25:36;;;;;;;14.65;13.15;;;27.30;61.00;;;;;;5057131;28;20060;-93
2023/06/26 00:28:01;;;;;;;13.98;12.68;;;27.30;60.90;;;;;;5061990;28;20470;-94
2023/06/26 00:30:33;;;;;;;14.45;13.07;;;27.30;60.90;;;;;;5061487;28;20047;-95
2023/06/26 00:32:59;;;;;;;14.07;12.80;;;27.30;61.00;;;;;;5062097;28;20534;-93
2023/06/26 00:35:25;;;;;;;14.23;12.70;;;27.30;60.90;;;;;;5077563;28;20086;-94
2023/06/26 00:37:50;;;;;;;14.55;13.15;;;27.40;60.90;;;;;;5061642;28;20067;-95
2023/06/26 00:40:16;;;;;;;14.60;13.23;;;27.30;60.90;;;;;;5060379;28;20032;-94
2023/06/26 00:42:50;;;;;;;13.50;12.30;;;27.30;61.00;;;;;;5077948;28;20052;-94
2023/06/26 00:45:15;;;;;;;15.50;12.68;;;27.20;61.10;;;;;;5061596;28;21091;-93
2023/06/26 00:47:41;;;;;;;14.85;13.13;;;27.30;61.00;;;;;;5059952;28;20063;-92
2023/06/26 00:50:08;;;;;;;13.88;12.57;;;27.30;61.00;;;;;;5061252;28;20482;-94
2023/06/26 00:52:37;;;;;;;14.05;12.82;;;27.30;61.10;;;;;;5060384;28;20051;-95
2023/06/26 00:55:04;;;;;;;15.18;13.68;;;27.20;61.20;;;;;;5059913;28;20791;-93
2023/06/26 00:57:30;;;;;;;14.25;12.95;;;27.20;61.20;;;;;;5059214;28;20040;-93
2023/06/26 00:59:57;;;;;;;14.85;13.45;;;27.20;61.30;;;;;;5059843;28;20048;-95
2023/06/26 01:02:22;;;;;;;12.85;11.65;;;27.20;61.40;;;;;;5060259;28;20047;-92
2023/06/26 01:04:52;;;;;;;12.57;11.45;;;27.20;61.40;;;;;;5060193;28;20131;-94
2023/06/26 01:07:19;;;;;;;13.98;12.65;;;27.20;61.30;;;;;;5059084;28;20036;-92
2023/06/26 01:09:49;;;;;;;13.98;12.68;;;27.20;61.20;;;;;;5059269;28;20528;-93
2023/06/26 01:12:15;;;;;;;13.57;12.38;;;27.20;61.30;;;;;;5059413;28;20090;-93
2023/06/26 01:14:49;;;;;;;12.93;11.80;;;27.20;61.40;;;;;;5059495;28;20055;-92
2023/06/26 01:17:16;;;;;;;13.63;12.40;;;27.10;61.50;;;;;;5059310;28;20051;-94
2023/06/26 01:19:43;;;;;;;14.25;12.90;;;27.20;61.50;;;;;;5059351;28;20097;-94
2023/06/26 01:22:44;;;;;;;12.10;11.07;;;27.10;61.50;;;;;;5059382;28;20048;-92
2023/06/26 01:25:41;;;;;;;14.07;12.77;;;27.00;61.70;;;;;;5058914;28;20064;-94
2023/06/26 01:28:09;;;;;;;14.05;12.65;;;27.00;61.60;;;;;;5059240;28;20045;-94
2023/06/26 01:30:44;;;;;;;14.48;12.98;;;27.10;61.60;;;;;;5059959;28;20559;-93
2023/06/26 01:33:12;;;;;;;14.13;12.77;;;27.00;61.80;;;;;;5058959;28;20046;-93
2023/06/26 01:35:38;;;;;;;13.45;12.15;;;27.00;61.80;;;;;;5071584;28;20024;-93
2023/06/26 01:38:16;;;;;;;14.15;12.70;;;27.00;61.90;;;;;;5078390;28;20055;-94
2023/06/26 01:40:43;;;;;;;12.98;11.77;;;26.90;61.90;;;;;;5062240;28;20065;-92
2023/06/26 01:43:20;;;;;;;12.63;11.50;;;27.00;61.80;;;;;;5061871;28;20079;-94
2023/06/26 01:45:58;;;;;;;13.32;12.15;;;26.90;61.90;;;;;;5061829;28;20093;-91
2023/06/26 01:48:27;;;;;;;13.30;12.00;;;27.00;62.10;;;;;;5060012;28;20044;-92
2023/06/26 01:50:53;;;;;;;13.50;12.20;;;27.00;61.90;;;;;;5061233;28;20066;-94
2023/06/26 01:53:24;;;;;;;13.23;11.85;;;27.00;62.00;;;;;;5058917;28;20040;-93
2023/06/26 01:55:55;;;;;;;13.75;12.45;;;27.00;62.10;;;;;;5058915;28;20037;-94
2023/06/26 01:58:25;;;;;;;13.43;12.23;;;26.90;62.10;;;;;;5059093;28;20037;-91
2023/06/26 02:00:50;;;;;;;13.65;12.40;;;26.90;62.20;;;;;;5059356;28;20044;-94
2023/06/26 02:03:16;;;;;;;14.23;12.73;;;26.90;62.30;;;;;;5075825;28;20041;-94
2023/06/26 02:05:41;;;;;;;14.20;12.05;;;26.80;62.20;;;;;;5075703;28;20413;-93
2023/06/26 02:08:08;;;;;;;12.60;11.50;;;26.90;62.40;;;;;;5058763;28;20119;-93
2023/06/26 02:10:34;;;;;;;12.98;11.77;;;26.80;62.50;;;;;;5058721;28;20044;-95
2023/06/26 02:13:13;;;;;;;13.95;12.70;;;26.80;62.50;;;;;;5059379;28;20131;-93
2023/06/26 02:15:39;;;;;;;15.05;12.98;;;26.70;62.60;;;;;;5058190;28;20041;-95
2023/06/26 02:18:05;;;;;;;14.82;12.95;;;26.90;62.60;;;;;;5057855;28;20482;-92
2023/06/26 02:20:39;;;;;;;13.35;11.68;;;26.80;62.70;;;;;;5074223;28;20149;-94
2023/06/26 02:23:05;;;;;;;13.25;12.05;;;26.70;62.70;;;;;;5057816;28;20044;-94
2023/06/26 02:25:31;;;;;;;14.35;12.88;;;26.70;62.70;;;;;;5066693;28;20387;-93
2023/06/26 02:27:56;;;;;;;14.10;12.73;;;26.70;62.80;;;;;;5057053;28;20091;-94
2023/06/26 02:30:29;;;;;;;14.32;12.93;;;26.70;63.00;;;;;;5057281;28;20058;-93
2023/06/26 02:32:55;;;;;;;15.95;12.55;;;26.50;63.20;;;;;;5057534;28;20048;-92
2023/06/26 02:35:44;;;;;;;14.07;12.75;;;26.60;63.20;;;;;;5057892;28;20049;-94
2023/06/26 02:38:12;;;;;;;14.70;13.20;;;26.40;63.40;;;;;;5056996;28;20045;-92
2023/06/26 02:40:37;;;;;;;13.25;12.05;;;26.50;63.50;;;;;;5056958;28;20048;-93
2023/06/26 02:43:03;;;;;;;12.38;11.18;;;26.50;63.50;;;;;;5056261;28;20042;-93
2023/06/26 02:45:29;;;;;;;12.82;11.70;;;26.40;63.30;;;;;;5056628;28;20126;-93
2023/06/26 02:47:54;;;;;;;12.20;11.10;;;26.40;63.30;;;;;;5056540;28;20040;-93
2023/06/26 02:50:20;;;;;;;11.73;10.65;;;26.40;63.30;;;;;;5073115;28;20047;-93
2023/06/26 02:52:47;;;;;;;13.40;12.10;;;26.30;63.30;;;;;;5056973;28;20054;-92
2023/06/26 02:55:21;;;;;;;14.63;12.95;;;26.30;63.40;;;;;;5056609;28;20040;-93
2023/06/26 02:57:47;;;;;;;14.55;13.00;;;26.20;63.70;;;;;;5056354;28;20047;-93
2023/06/26 03:00:13;;;;;;;15.05;13.45;;;26.20;63.60;;;;;;5056828;28;20041;-93
2023/06/26 03:02:39;;;;;;;14.98;13.57;;;26.20;63.70;;;;;;5056839;28;20543;-94
2023/06/26 03:05:05;;;;;;;14.73;13.20;;;26.10;63.80;;;;;;5056655;28;20041;-95
2023/06/26 03:07:30;;;;;;;15.38;13.98;;;26.00;63.90;;;;;;5057080;28;20190;-94
2023/06/26 03:09:57;;;;;;;14.15;12.73;;;26.00;64.20;;;;;;5058344;28;20044;-91
2023/06/26 03:12:25;;;;;;;13.68;12.38;;;25.90;64.30;;;;;;5056878;28;20097;-91
2023/06/26 03:14:51;;;;;;;13.75;12.10;;;25.80;64.30;;;;;;5057201;28;20505;-92
2023/06/26 03:17:16;;;;;;;14.18;12.48;;;25.80;64.30;;;;;;5056757;28;20036;-92
2023/06/26 03:19:42;;;;;;;13.63;12.32;;;25.80;64.30;;;;;;5057427;28;20055;-92
2023/06/26 03:22:08;;;;;;;13.82;12.52;;;25.90;64.30;;;;;;5073536;28;20398;-94
2023/06/26 03:24:45;;;;;;;14.38;13.00;;;25.90;64.20;;;;;;5056452;28;20123;-93
2023/06/26 03:27:11;;;;;;;13.88;12.57;;;25.80;64.30;;;;;;5056325;28;20066;-93
2023/06/26 03:29:37;;;;;;;13.85;12.55;;;25.90;64.20;;;;;;5058524;28;20040;-95
2023/06/26 03:32:03;;;;;;;15.32;13.80;;;25.90;64.30;;;;;;5073136;28;20047;-91
2023/06/26 03:34:37;;;;;;;15.05;13.55;;;25.80;64.40;;;;;;5057111;28;20044;-93
2023/06/26 03:37:03;;;;;;;14.70;13.30;;;25.80;64.60;;;;;;5057070;28;20551;-93
2023/06/26 03:39:28;;;;;;;14.45;13.10;;;25.80;64.60;;;;;;5057197;28;20040;-91
2023/06/26 03:41:54;;;;;;;15.02;13.52;;;25.70;64.70;;;;;;5056752;28;20076;-92
2023/06/26 03:44:22;;;;;;;14.70;13.30;;;25.70;64.80;;;;;;5056529;28;20135;-93
2023/06/26 03:46:47;;;;;;;15.65;13.95;;;25.60;64.90;;;;;;5058722;28;20040;-92
2023/06/26 03:49:13;;;;;;;14.95;13.65;;;25.50;65.20;;;;;;5076885;28;20393;-92
2023/06/26 03:51:39;;;;;;;15.15;13.55;;;25.50;65.50;;;;;;5060345;28;20131;-94
2023/06/26 03:54:05;;;;;;;15.90;14.40;;;25.50;65.90;;;;;;5064961;28;20128;-92
2023/06/26 03:56:43;;;;;;;14.82;13.43;;;25.40;66.20;;;;;;5065475;28;20051;-96
2023/06/26 03:59:09;;;;;;;15.40;13.93;;;25.30;66.50;;;;;;5068261;28;20416;-94
2023/06/26 04:01:40;;;;;;;15.70;14.27;;;25.40;66.50;;;;;;5067957;28;20040;-94
2023/06/26 04:04:08;;;;;;;15.80;14.27;;;25.30;66.70;;;;;;5068773;28;20165;-91
2023/06/26 04:06:33;;;;;;;15.88;14.40;;;25.30;66.80;;;;;;5067500;28;20045;-94
2023/06/26 04:09:02;;;;;;;16.52;14.90;;;25.30;67.00;;;;;;5066744;28;20067;-93
2023/06/26 04:11:28;;;;;;;16.35;14.80;;;25.30;67.10;;;;;;5066819;28;20074;-91
2023/06/26 04:13:54;;;;;;;17.73;16.10;;;25.30;67.20;;;;;;5065888;28;20127;-91
2023/06/26 04:16:25;;;;;;;16.38;14.68;;;25.30;67.30;;;;;;5065935;28;20048;-92
2023/06/26 04:18:52;;;;;;;16.38;14.77;;;25.40;68.10;;;;;;5066484;28;20044;-91
2023/06/26 04:21:19;;;;;;;15.85;14.25;;;25.40;67.70;;;;;;5065850;28;20091;-92
2023/06/26 04:23:47;;;;;;;17.48;14.65;;;25.40;68.00;;;;;;5064194;28;20101;-92
2023/06/26 04:26:14;;;;;;;15.27;13.77;;;25.40;68.00;;;;;;5064203;28;20056;-91
2023/06/26 04:28:40;;;;;;;14.70;13.30;;;25.40;68.00;;;;;;5060629;28;20111;-91
2023/06/26 04:31:06;;;;;;;15.13;13.63;;;25.40;68.20;;;;;;5060210;28;20044;-90
2023/06/26 04:33:32;;;;;;;16.05;14.18;;;25.40;68.20;;;;;;5059256;28;20040;-91
2023/06/26 04:35:57;;;;;;;15.07;13.48;;;25.50;68.30;;;;;;5059459;28;20071;-91
2023/06/26 04:38:23;;;;;;;15.77;14.18;;;25.60;68.40;;;;;;5059977;28;20049;-90
2023/06/26 04:40:49;;;;;;;15.38;13.80;;;25.60;68.60;;;;;;5076844;28;20052;-92
2023/06/26 04:43:15;;;;;;;16.05;14.45;;;25.60;68.60;;;;;;5061783;28;20041;-90
2023/06/26 04:45:41;;;;;;;17.25;14.77;;;25.50;68.60;;;;;;5064533;28;20045;-93
2023/06/26 04:48:07;;;;;;;15.48;13.93;;;25.50;68.70;;;;;;5065049;28;20083;-93
2023/06/26 04:50:33;;;;;;;16.17;14.57;;;25.60;68.80;;;;;;5069464;28;20082;-92
2023/06/26 04:52:59;;;;;;;15.30;13.90;;;25.50;68.90;;;;;;5077298;28;20044;-93
2023/06/26 04:55:25;;;;;;;14.93;13.43;;;25.50;69.00;;;;;;5071790;28;20087;-92
2023/06/26 04:57:53;;;;;;;14.52;13.02;;;25.40;69.10;;;;;;5065040;28;20041;-93
2023/06/26 05:00:19;;;;;;;14.20;12.68;;;25.40;69.40;;;;;;5063952;28;20044;-91
2023/06/26 05:02:45;;;;;;;13.32;11.93;;;25.40;69.60;;;;;;5062975;28;20043;-92
2023/06/26 05:05:11;;;;;;;13.70;11.70;;;25.30;69.80;;;;;;5061567;28;20123;-93
2023/06/26 05:07:37;;;;;;;16.08;11.55;;;25.30;70.00;;;;;;5077270;28;20044;-91
2023/06/26 05:10:03;;;;;;;12.30;11.05;;;25.30;70.10;;;;;;5059804;28;20485;-90
2023/06/26 05:12:29;;;;;;;12.88;11.10;;;25.30;71.00;;;;;;5058969;28;20040;-91
2023/06/26 05:14:55;;;;;;;14.00;10.65;;;25.30;70.70;;;;;;5074524;28;20128;-93
2023/06/26 05:17:20;;;;;;;12.48;10.63;;;25.30;70.80;;;;;;5058160;28;20165;-93
2023/06/26 05:19:46;;;;;;;15.13;11.05;;;25.40;71.70;;;;;;5057506;28;20513;-91
2023/06/26 05:22:13;;;;;;;16.02;10.18;;;25.40;71.40;;;;;;5057801;28;20043;-91
2023/06/26 05:24:39;;;;;;;14.50;9.90;;;25.40;71.60;;;;;;5057814;28;20140;-92
2023/06/26 05:27:06;;;;;;;12.38;9.00;;;25.40;71.60;;;;;;5072746;28;20049;-91
2023/06/26 05:29:35;;;;;;;12.15;9.52;;;25.50;71.60;;;;;;5056693;28;20048;-90
2023/06/26 05:32:01;;;;;;;11.75;8.82;;;25.50;71.80;;;;;;5056249;28;20045;-90
2023/06/26 05:34:32;;;;;;;14.30;9.63;;;25.50;72.00;;;;;;5056144;28;20052;-90
2023/06/26 05:36:59;;;;;;;13.13;9.85;;;25.50;72.20;;;;;;5074272;28;20047;-91
2023/06/26 05:39:27;;;;;;;19.25;9.77;;;25.40;72.30;;;;;;5073884;28;20090;-90
2023/06/26 05:41:54;;;;;;;16.95;9.00;;;25.40;72.40;;;;;;5073974;28;20516;-94
2023/06/26 05:44:19;;;;;;;12.80;8.68;;;25.40;72.50;;;;;;5057561;28;20040;-92
2023/06/26 05:46:48;;;;;;;18.08;9.07;;;25.30;72.70;;;;;;5073478;28;20045;-92
2023/06/26 05:49:14;;;;;;;14.60;9.13;;;25.30;73.10;;;;;;5073607;28;20056;-94
2023/06/26 05:51:40;;;;;;;14.45;8.90;;;25.20;73.10;;;;;;5056296;28;20513;-89
2023/06/26 05:54:09;;;;;;;12.57;8.50;;;25.20;73.00;;;;;;5073393;28;20529;-89
2023/06/26 05:56:35;;;;;;;14.00;8.70;;;25.10;73.10;;;;;;5056884;28;21105;-91
2023/06/26 05:59:01;;;;;;;13.07;9.32;;;25.20;73.30;;;;;;5058073;28;20053;-89
2023/06/26 06:01:27;;;;;;;11.18;8.95;;;25.30;73.00;;;;;;5074196;28;20056;-93
2023/06/26 06:03:53;;;;;;;11.60;8.90;;;25.40;72.90;;;;;;5057584;28;20086;-92
2023/06/26 06:06:18;;;;;;;20.20;8.80;;;25.30;72.60;;;;;;5073087;28;20647;-90
2023/06/26 06:08:44;;;;;;;20.38;8.93;;;25.40;72.60;;;;;;5072997;28;20041;-93
2023/06/26 06:11:09;;;;;;;14.88;8.45;;;25.40;72.50;;;;;;5056271;28;20498;-91
2023/06/26 06:13:35;;;;;;;15.77;7.95;;;25.40;72.60;;;;;;5073859;28;20043;-89
2023/06/26 06:16:01;;;;;;;13.35;7.97;;;25.30;72.60;;;;;;5072776;28;20401;-90
2023/06/26 06:18:26;;;;;;;15.32;8.60;;;25.20;72.80;;;;;;5073609;28;20045;-90
2023/06/26 06:20:52;;;;;;;13.38;8.35;;;25.20;72.90;;;;;;5056110;28;20101;-90
2023/06/26 06:23:18;;;;;;;14.27;7.65;;;25.10;73.10;;;;;;5056087;28;20048;-92
2023/06/26 06:25:43;;;;;;;11.07;7.47;;;25.00;73.20;;;;;;5056352;28;20052;-89
2023/06/26 06:28:09;;;;;;;11.35;7.38;;;24.90;73.40;;;;;;5072061;28;20044;-91
2023/06/26 06:30:35;;;;;;;10.90;6.63;;;24.90;73.60;;;;;;5072260;28;20044;-92
2023/06/26 06:33:02;;;;;;;10.45;6.78;;;24.80;73.80;;;;;;5071710;28;20041;-93
2023/06/26 06:35:28;;;;;;;10.70;6.78;;;24.80;73.80;;;;;;5056355;28;20048;-92
2023/06/26 06:37:53;;;;;;;11.02;6.72;;;24.80;73.70;;;;;;5072397;28;20106;-91
2023/06/26 06:40:21;;;;;;;10.43;6.55;;;24.90;73.70;;;;;;5072739;28;20045;-87
2023/06/26 06:42:47;;;;;;;9.07;6.00;;;25.00;73.40;;;;;;5072300;28;20110;-89
2023/06/26 06:45:13;;;;;;;11.40;6.35;;;25.00;73.20;;;;;;5071676;28;20497;-89
2023/06/26 06:47:38;;;;;;;9.85;5.85;;;25.00;73.10;;;;;;5054768;28;20094;-88
2023/06/26 06:50:10;;;;;;;12.77;5.45;;;25.10;73.00;;;;;;5072502;28;20106;-89
2023/06/26 06:52:37;;;;;;;9.48;5.38;;;25.20;72.20;;;;;;5054165;28;20040;-88
2023/06/26 06:55:08;;;;;;;10.25;5.25;;;25.20;71.80;;;;;;5071510;28;20503;-88
2023/06/26 06:57:37;;;;;;;8.85;4.80;;;25.20;72.40;;;;;;5070435;28;20104;-89
2023/06/26 07:00:11;;;;;;;8.20;4.82;;;25.20;71.60;;;;;;5053744;28;20076;-89
2023/06/26 07:02:41;;;;;;;12.40;5.03;;;25.20;71.60;;;;;;5056098;28;20048;-90
2023/06/26 07:05:07;;;;;;;8.10;4.05;;;25.30;71.10;;;;;;5073983;28;20378;-91
2023/06/26 07:07:35;;;;;;;8.68;4.43;;;25.30;70.20;;;;;;5055053;28;20052;-89
2023/06/26 07:10:03;;;;;;;8.23;3.60;;;25.30;69.70;;;;;;5055170;28;20488;-89
2023/06/26 07:12:29;;;;;;;7.68;4.00;;;25.40;69.30;;;;;;5070106;28;20037;-88
2023/06/26 07:14:56;;;;;;;6.82;3.97;;;25.40;69.00;;;;;;5071513;28;20048;-89
2023/06/26 07:17:22;;;;;;;8.73;3.67;;;25.40;69.30;;;;;;5071237;28;20048;-89
2023/06/26 07:19:49;;;;;;;6.40;3.88;;;25.60;69.40;;;;;;5073049;28;20071;-91
2023/06/26 07:22:14;;;;;;;7.20;3.63;;;25.60;69.00;;;;;;5056310;28;20094;-93
2023/06/26 07:24:43;;;;;;;7.18;3.25;;;25.60;68.60;;;;;;5055453;28;20105;-91
2023/06/26 07:27:09;;;;;;;7.13;3.80;;;25.90;68.00;;;;;;5054047;28;20459;-91
2023/06/26 07:29:34;;;;;;;9.15;3.42;;;26.00;67.10;;;;;;5054916;28;20052;-90
2023/06/26 07:32:00;;;;;;;8.23;3.15;;;26.10;66.40;;;;;;5056854;28;20052;-95
2023/06/26 07:34:26;;;;;;;8.00;3.30;;;26.20;66.30;;;;;;5074179;28;20044;-92
2023/06/26 07:36:51;;;;;;;6.50;2.90;;;26.30;65.90;;;;;;5056821;28;20048;-92
2023/06/26 07:39:17;;;;;;;9.35;3.17;;;26.40;65.70;;;;;;5073085;28;20072;-93
2023/06/26 07:41:52;;;;;;;7.10;2.95;;;26.30;65.10;;;;;;5073456;28;20045;-91
2023/06/26 07:44:17;;;;;;;6.57;2.67;;;26.40;65.20;;;;;;5057584;28;20174;-93
2023/06/26 07:46:44;;;;;;;7.50;2.60;;;26.40;64.50;;;;;;5056550;28;20146;-91
2023/06/26 07:49:10;;;;;;;7.10;2.90;;;26.50;64.10;;;;;;5055942;28;20600;-91
2023/06/26 07:51:36;;;;;;;7.43;2.85;;;26.60;64.20;;;;;;5073531;28;20044;-92
2023/06/26 07:54:02;;;;;;;6.32;2.50;;;26.70;64.10;;;;;;5074264;28;20080;-90
2023/06/26 07:56:27;;;;;;;6.30;2.28;;;26.80;63.40;;;;;;5054699;28;20051;-91
2023/06/26 07:58:53;;;;;;;7.07;2.88;;;26.80;62.80;;;;;;5072072;28;20041;-90
2023/06/26 08:01:19;;;;;;;5.85;2.60;;;26.70;62.70;;;;;;5055158;28;20036;-91
2023/06/26 08:03:50;;;;;;;7.50;2.35;;;26.80;62.60;;;;;;5074098;28;20476;-91
2023/06/26 08:06:16;;;;;;;4.95;2.22;;;26.80;62.60;;;;;;5056566;28;20110;-91
2023/06/26 08:08:41;;;;;;;7.53;2.70;;;26.90;62.30;;;;;;5084857;28;20159;-90
2023/06/26 08:11:07;;;;;;;4.25;2.30;;;27.00;62.20;;;;;;5082042;28;20083;-89
2023/06/26 08:13:39;;;;;;;6.00;2.33;;;27.10;61.80;;;;;;5054704;28;20045;-88
2023/06/26 08:16:04;;;;;;;4.72;2.10;;;27.10;61.30;;;;;;5055123;28;20037;-90
2023/06/26 08:18:30;;;;;;;5.60;2.15;;;27.20;61.10;;;;;;5070781;28;20048;-89
2023/06/26 08:20:56;;;;;;;4.85;2.08;;;27.30;60.70;;;;;;5055606;28;20040;-91
2023/06/26 08:23:22;;;;;;;5.45;2.20;;;27.40;60.70;;;;;;5056199;28;20059;-91
2023/06/26 08:25:48;;;;;;;5.47;1.92;;;27.50;60.20;;;;;;5053734;28;20056;-91
2023/06/26 08:28:14;;;;;;;4.70;1.80;;;27.50;59.60;;;;;;5053103;28;20080;-91
2023/06/26 08:30:50;;;;;;;5.32;2.45;;;27.60;58.80;;;;;;5069547;28;20045;-94
2023/06/26 08:33:15;;;;;;;7.82;2.70;;;27.50;59.00;;;;;;5071158;28;20156;-90
2023/06/26 08:35:41;;;;;;;3.38;2.15;;;27.70;59.50;;;;;;5070748;28;20579;-89
2023/06/26 08:38:09;;;;;;;5.75;2.30;;;27.90;59.10;;;;;;5071823;28;20045;-90
2023/06/26 08:40:40;;;;;;;8.00;2.22;;;27.80;58.50;;;;;;5075738;28;20127;-90
2023/06/26 08:43:06;;;;;;;9.32;2.70;;;27.40;58.80;;;;;;5060043;28;20119;-90
2023/06/26 08:45:32;;;;;;;5.63;2.42;;;27.40;59.00;;;;;;5076749;28;20048;-91
2023/06/26 08:48:00;;;;;;;4.25;2.13;;;27.40;59.40;;;;;;5074100;28;20040;-93
2023/06/26 08:50:33;;;;;;;6.22;2.28;;;27.40;59.10;;;;;;5058459;28;20040;-91
2023/06/26 08:53:32;;;;;;;4.50;1.87;;;27.40;59.30;;;;;;5077182;28;20040;-92
2023/06/26 08:55:59;;;;;;;3.92;1.70;;;27.40;59.30;;;;;;5074637;28;20051;-90
2023/06/26 08:58:25;;;;;;;5.90;2.15;;;27.60;58.10;;;;;;5058010;28;20037;-89
2023/06/26 09:00:51;;;;;;;2.22;1.80;;;27.50;58.30;;;;;;5055570;28;20398;-94
2023/06/26 09:03:17;;;;;;;3.20;1.80;;;27.50;58.30;;;;;;5076769;28;20086;-89
2023/06/26 09:05:43;;;;;;;4.53;1.80;;;27.60;57.20;;;;;;5062147;28;20048;-94
2023/06/26 09:08:08;;;;;;;3.10;2.10;;;27.70;57.10;;;;;;5058581;28;20037;-90
2023/06/26 09:10:34;;;;;;;6.40;2.22;;;27.60;57.10;;;;;;5074187;28;20090;-90
2023/06/26 09:13:03;;;;;;;5.03;2.10;;;27.70;57.30;;;;;;5076333;28;20417;-94
2023/06/26 09:15:39;;;;;;;3.75;2.03;;;27.80;56.90;;;;;;5058744;28;20153;-94
2023/06/26 09:18:05;;;;;;;4.38;2.00;;;27.70;56.60;;;;;;5043355;28;20053;-91
2023/06/26 09:20:34;;;;;;;2.78;1.90;;;27.70;56.90;;;;;;5059036;28;20455;-90
2023/06/26 09:23:03;;;;;;;5.43;2.00;;;27.70;57.50;;;;;;5060418;28;20055;-93
2023/06/26 09:25:31;;;;;;;4.45;1.90;;;27.80;57.60;;;;;;5059082;28;20044;-90
2023/06/26 09:27:57;;;;;;;3.72;2.50;;;28.00;57.10;;;;;;5060215;28;20124;-94
2023/06/26 09:30:23;;;;;;;3.92;1.90;;;27.90;56.80;;;;;;5076475;28;20559;-91
2023/06/26 09:32:54;;;;;;;5.95;2.20;;;27.50;57.00;;;;;;5058222;28;20048;-89
2023/06/26 09:35:22;;;;;;;4.57;2.20;;;27.40;56.90;;;;;;5057401;28;20481;-92
2023/06/26 09:37:49;;;;;;;4.38;2.40;;;27.50;56.80;;;;;;5074442;28;20262;-92
2023/06/26 09:40:17;;;;;;;4.43;2.35;;;27.70;56.50;;;;;;5040838;28;20044;-92
2023/06/26 09:42:43;;;;;;;3.95;2.40;;;27.70;56.20;;;;;;5073662;28;20038;-90
2023/06/26 09:45:18;;;;;;;4.55;2.50;;;27.40;56.10;;;;;;5056968;28;20098;-90
2023/06/26 09:47:46;;;;;;;6.15;2.70;;;26.90;56.20;;;;;;5058745;28;20049;-92
2023/06/26 09:50:28;;;;;;;3.45;2.30;;;26.80;56.80;;;;;;5055587;28;20044;-92
2023/06/26 09:52:54;;;;;;;4.15;2.60;;;26.60;57.40;;;;;;5057494;28;20453;-90
2023/06/26 09:55:22;;;;;;;8.32;2.42;;;26.90;57.50;;;;;;5074042;28;20087;-90
2023/06/26 09:57:54;;;;;;;5.05;2.60;;;27.20;57.80;;;;;;5074402;28;20090;-92
2023/06/26 10:00:22;;;;;;;5.72;2.65;;;27.30;57.40;;;;;;5058545;28;20047;-93
2023/06/26 10:02:51;;;;;;;3.15;2.40;;;27.20;56.50;;;;;;5073412;28;20051;-88
2023/06/26 10:05:16;;;;;;;5.50;2.35;;;27.10;55.80;;;;;;5054559;28;20040;-90
2023/06/26 10:08:06;;;;;;;3.50;2.28;;;27.00;55.90;;;;;;5071023;28;20123;-90
2023/06/26 10:10:35;;;;;;;4.38;2.40;;;26.80;56.70;;;;;;5071244;28;20059;-88
2023/06/26 10:13:08;;;;;;;2.88;1.83;;;27.10;56.10;;;;;;5055076;28;20106;-89
2023/06/26 10:15:35;;;;;;;5.35;2.20;;;27.30;55.70;;;;;;5071746;28;20052;-90
2023/06/26 10:18:07;;;;;;;4.20;2.25;;;27.60;54.60;;;;;;5073622;28;20040;-89
2023/06/26 10:20:40;;;;;;;5.97;2.25;;;27.80;54.50;;;;;;5073962;28;20056;-92
2023/06/26 10:23:10;;;;;;;7.00;2.22;;;28.10;53.60;;;;;;5056889;28;20040;-88
2023/06/26 10:25:40;;;;;;;4.80;2.40;;;28.00;53.30;;;;;;5073630;28;20056;-94
2023/06/26 10:28:16;;;;;;;4.05;2.25;;;27.90;53.20;;;;;;5056785;28;20557;-89
2023/06/26 10:30:47;;;;;;;6.35;2.25;;;27.70;53.20;;;;;;5072961;28;20056;-88
2023/06/26 10:33:16;;;;;;;5.70;2.60;;;27.40;53.00;;;;;;5057428;28;20383;-89
2023/06/26 10:35:46;;;;;;;3.53;2.35;;;27.60;52.90;;;;;;5072041;28;20057;-91
2023/06/26 10:38:11;;;;;;;4.25;2.17;;;27.80;53.00;;;;;;5073245;28;20040;-90
2023/06/26 10:40:45;;;;;;;3.85;2.33;;;28.00;52.20;;;;;;5055865;28;20501;-89
2023/06/26 10:43:18;;;;;;;3.40;2.17;;;28.20;51.10;;;;;;5055450;28;20186;-89
2023/06/26 10:45:53;;;;;;;3.93;2.33;;;28.50;50.90;;;;;;5073741;28;20539;-92
2023/06/26 10:48:22;;;;;;;5.70;2.55;;;28.50;50.50;;;;;;5072123;28;20290;-91
2023/06/26 10:50:56;;;;;;;5.97;2.42;;;28.50;50.60;;;;;;5072475;28;20408;-89
2023/06/26 10:53:34;;;;;;;11.13;3.03;;;28.30;51.50;;;;;;5074325;28;20066;-89
2023/06/26 10:56:02;;;;;;;3.72;2.30;;;28.10;51.90;;;;;;5056349;28;20049;-89
2023/06/26 10:58:41;;;;;;;7.57;2.67;;;27.90;52.00;;;;;;5072319;28;20056;-90
2023/06/26 11:01:21;;;;;;;6.70;2.60;;;27.50;52.10;;;;;;5071672;28;20469;-88
2023/06/26 11:04:01;;;;;;;5.93;2.40;;;27.40;53.20;;;;;;5073029;28;20080;-90
2023/06/26 11:06:27;;;;;;;2.97;2.30;;;27.70;52.30;;;;;;5055148;28;20105;-91
2023/06/26 11:09:23;;;;;;;5.60;2.67;;;27.90;52.20;;;;;;5055269;28;20036;-91
2023/06/26 11:11:52;;;;;;;2.78;2.10;;;28.10;52.50;;;;;;5070257;28;20056;-90
2023/06/26 11:14:25;;;;;;;6.85;2.38;;;28.50;50.80;;;;;;5055482;28;20578;-91
2023/06/26 11:17:02;;;;;;;3.25;2.30;;;28.60;49.60;;;;;;5070514;28;20169;-89
2023/06/26 11:19:31;;;;;;;4.72;2.40;;;28.80;49.60;;;;;;5071591;28;20052;-89
2023/06/26 11:22:02;;;;;;;4.03;1.88;;;29.00;49.20;;;;;;5056888;28;20051;-89
2023/06/26 11:24:30;;;;;;;4.93;2.00;;;29.20;48.70;;;;;;5074562;28;20051;-89
2023/06/26 11:27:00;;;;;;;5.45;2.20;;;29.30;48.80;;;;;;5055359;28;20094;-89
2023/06/26 11:29:26;;;;;;;5.35;2.58;;;29.30;48.00;;;;;;5055794;28;20048;-88
2023/06/26 11:31:59;;;;;;;2.60;2.20;;;29.40;49.00;;;;;;5072163;28;20366;-88
2023/06/26 11:34:35;;;;;;;9.48;2.30;;;29.30;49.00;;;;;;5058000;28;20094;-92
2023/06/26 11:37:04;;;;;;;5.05;2.40;;;29.10;47.90;;;;;;5057138;28;20109;-94
2023/06/26 11:39:30;;;;;;;6.28;2.08;;;28.80;48.10;;;;;;5059449;28;20132;-91
2023/06/26 11:41:58;;;;;;;4.25;2.10;;;28.80;48.30;;;;;;5055444;28;20104;-94
2023/06/26 11:44:31;;;;;;;7.93;2.08;;;28.90;48.40;;;;;;5074647;28;20079;-90
2023/06/26 11:46:58;;;;;;;9.07;2.33;;;29.00;47.10;;;;;;5057890;28;20097;-93
2023/06/26 11:49:28;;;;;;;4.28;1.70;;;29.00;46.50;;;;;;5072868;28;20053;-90
2023/06/26 11:51:59;;;;;;;6.50;2.20;;;29.00;46.30;;;;;;5071296;28;20036;-90
2023/06/26 11:54:26;;;;;;;3.95;2.10;;;29.10;47.60;;;;;;5056245;28;20080;-90
2023/06/26 11:57:01;;;;;;;7.18;2.28;;;29.20;47.20;;;;;;5055745;28;20507;-91
2023/06/26 11:59:53;;;;;;;5.22;2.60;;;29.10;47.30;;;;;;5074059;28;20057;-93
2023/06/26 12:02:23;;;;;;;5.93;2.08;;;29.10;48.30;;;;;;5068244;28;20063;-89
2023/06/26 12:04:49;;;;;;;5.85;1.77;;;29.30;46.00;;;;;;5055911;28;20047;-93
2023/06/26 12:07:36;;;;;;;5.80;1.90;;;29.30;44.70;;;;;;5072700;28;20041;-90
2023/06/26 12:10:11;;;;;;;3.40;1.85;;;29.40;44.80;;;;;;5055554;28;20137;-89
2023/06/26 12:12:38;;;;;;;3.13;2.03;;;29.40;44.30;;;;;;5056580;28;20052;-92
2023/06/26 12:15:29;;;;;;;5.78;2.00;;;29.60;44.90;;;;;;5077762;28;20071;-92
2023/06/26 12:20:49;;;;;;;4.72;1.70;;;29.20;45.90;;;;;;5062627;28;20145;-94
2023/06/26 12:23:17;;;;;;;3.83;1.63;;;28.70;46.00;;;;;;5063161;28;20037;-92
2023/06/26 12:25:51;;;;;;;4.95;1.65;;;28.70;46.80;;;;;;5060231;28;20048;-91
2023/06/26 12:28:21;;;;;;;3.17;1.50;;;28.60;46.30;;;;;;5077415;28;20144;-93
2023/06/26 12:31:06;;;;;;;5.88;1.77;;;28.50;46.50;;;;;;5060148;28;20497;-92
2023/06/26 12:33:32;;;;;;;5.50;1.55;;;28.40;46.80;;;;;;5076088;28;20595;-88
2023/06/26 12:35:57;;;;;;;1.50;1.30;;;28.40;47.20;;;;;;5061425;28;20044;-92
2023/06/26 12:38:33;;;;;;;3.72;1.38;;;28.50;46.90;;;;;;5076840;28;20032;-92
2023/06/26 12:41:02;;;;;;;4.43;1.30;;;28.60;45.50;;;;;;5076472;28;20075;-93
2023/06/26 12:43:27;;;;;;;5.28;1.75;;;28.70;45.90;;;;;;5059735;28;20397;-87
2023/06/26 12:46:02;;;;;;;2.97;1.30;;;28.80;45.50;;;;;;5059386;28;20048;-91
2023/06/26 12:48:46;;;;;;;7.47;1.80;;;28.80;45.30;;;;;;5059834;28;20563;-91